Time;durP1;ratioP1;P1;durP2;ratioP2;P2;SDS_P1;SDS_P2;PMS_P1;PMS_P2;Temp;Humidity;BMP_temperature;BMP_pressure;BME280_temperature;BME280_humidity;BME280_pressure;Samples;Min_cycle;Max_cycle;Signal;HPM_P1;HPM_P2
2022/02/19 00:01:30;;;;;;;5.55;1.30;;;;;;;11.98;50.92;98991.81;5091473;28;20500;-47
2022/02/19 00:03:57;;;;;;;6.10;1.75;;;;;;;12.00;50.96;99000.31;5091518;28;20060;-48
2022/02/19 00:06:23;;;;;;;10.80;4.95;;;;;;;12.05;50.84;99005.75;5095286;28;20026;-48
2022/02/19 00:08:49;;;;;;;7.82;2.13;;;;;;;12.10;50.28;99005.19;5095384;28;20393;-48
2022/02/19 00:11:14;;;;;;;7.45;1.95;;;;;;;12.10;50.38;98997.28;5095319;28;20024;-47
2022/02/19 00:13:40;;;;;;;4.75;1.90;;;;;;;12.07;50.33;98998.47;5093967;28;20028;-47
2022/02/19 00:16:06;;;;;;;7.05;1.90;;;;;;;12.06;50.09;99009.22;5095289;28;20024;-48
2022/02/19 00:18:33;;;;;;;7.60;2.17;;;;;;;12.06;50.02;99014.50;5095088;28;20024;-48
2022/02/19 00:20:58;;;;;;;7.43;1.63;;;;;;;12.06;49.84;99019.75;5095070;28;20024;-48
2022/02/19 00:23:29;;;;;;;4.60;1.65;;;;;;;12.07;50.05;99016.91;5095142;28;20047;-47
2022/02/19 00:25:55;;;;;;;12.20;2.00;;;;;;;12.07;50.13;99030.03;5095118;28;20024;-48
2022/02/19 00:28:20;;;;;;;4.80;1.60;;;;;;;11.99;50.29;99030.25;5095106;28;20421;-49
2022/02/19 00:30:46;;;;;;;8.15;2.22;;;;;;;11.96;50.24;99028.03;5094953;28;20028;-48
2022/02/19 00:33:12;;;;;;;7.15;1.83;;;;;;;11.91;50.40;99039.16;5093610;28;20248;-48
2022/02/19 00:35:38;;;;;;;6.35;1.40;;;;;;;11.86;50.35;99052.06;5093516;28;20051;-47
2022/02/19 00:38:03;;;;;;;5.20;1.50;;;;;;;11.83;50.33;99047.22;5094611;28;20040;-49
2022/02/19 00:40:29;;;;;;;5.13;1.75;;;;;;;11.74;50.45;99057.09;5094681;28;20031;-49
2022/02/19 00:42:55;;;;;;;6.93;1.88;;;;;;;11.68;50.69;99044.72;5095037;28;20472;-49
2022/02/19 00:45:21;;;;;;;7.78;2.03;;;;;;;11.66;51.10;99033.59;5093336;28;20027;-48
2022/02/19 00:47:46;;;;;;;10.43;1.67;;;;;;;11.63;51.26;99035.81;5094631;28;20012;-49
2022/02/19 00:50:13;;;;;;;5.90;1.50;;;;;;;11.65;51.13;99039.06;5093205;28;20096;-48
2022/02/19 00:52:39;;;;;;;5.82;1.83;;;;;;;11.56;51.11;99047.13;5093208;28;20057;-49
2022/02/19 00:55:06;;;;;;;6.70;1.73;;;;;;;11.48;51.43;99043.88;5094477;28;20047;-47
2022/02/19 00:57:32;;;;;;;9.93;1.80;;;;;;;11.38;51.73;99057.38;5094440;28;20020;-48
2022/02/19 00:59:57;;;;;;;8.85;2.05;;;;;;;11.32;51.88;99055.53;5094269;28;20031;-49
2022/02/19 01:02:23;;;;;;;5.47;1.70;;;;;;;11.31;52.00;99048.66;5093004;28;20028;-48
2022/02/19 01:04:49;;;;;;;5.43;1.70;;;;;;;11.33;52.40;99052.72;5094262;28;20024;-48
2022/02/19 01:07:14;;;;;;;6.20;1.70;;;;;;;11.49;52.04;99055.97;5094239;28;20023;-49
2022/02/19 01:09:40;;;;;;;9.63;2.70;;;;;;;11.39;51.92;99051.13;5094218;28;20051;-48
2022/02/19 01:12:06;;;;;;;9.88;1.85;;;;;;;11.29;51.95;99054.09;5094129;28;20103;-48
2022/02/19 01:14:32;;;;;;;6.22;1.65;;;;;;;11.19;52.54;99054.47;5094385;28;20471;-47
2022/02/19 01:16:57;;;;;;;6.28;1.42;;;;;;;11.18;52.51;99055.47;5092539;28;20062;-49
2022/02/19 01:19:23;;;;;;;9.25;1.65;;;;;;;11.16;52.36;99061.91;5092612;28;20502;-48
2022/02/19 01:21:49;;;;;;;7.63;1.90;;;;;;;11.12;52.38;99058.06;5093930;28;20489;-49
2022/02/19 01:24:15;;;;;;;9.70;2.13;;;;;;;11.08;52.16;99062.06;5093965;28;20024;-47
2022/02/19 01:26:40;;;;;;;6.30;2.13;;;;;;;11.00;52.69;99058.59;5093844;28;20016;-47
2022/02/19 01:29:06;;;;;;;7.00;1.48;;;;;;;11.02;52.12;99068.09;5092531;28;20024;-49
2022/02/19 01:31:33;;;;;;;6.90;1.70;;;;;;;11.03;52.35;99067.09;5092421;28;20059;-48
2022/02/19 01:33:58;;;;;;;9.60;3.03;;;;;;;11.08;52.68;99080.47;5093759;28;20031;-47
2022/02/19 01:36:24;;;;;;;7.35;1.63;;;;;;;11.23;51.90;99075.91;5093659;28;20583;-47
2022/02/19 01:38:50;;;;;;;9.48;1.65;;;;;;;11.22;51.74;99078.72;5093430;28;20036;-48
2022/02/19 01:41:16;;;;;;;6.68;1.83;;;;;;;11.24;51.96;99085.41;5093466;28;20401;-49
2022/02/19 01:43:41;;;;;;;9.50;2.30;;;;;;;11.32;52.00;99082.59;5093527;28;20397;-49
2022/02/19 01:46:07;;;;;;;8.70;2.03;;;;;;;11.38;51.57;99081.81;5093715;28;20035;-47
2022/02/19 01:48:33;;;;;;;6.55;1.80;;;;;;;11.42;51.57;99087.50;5093455;28;20031;-48
2022/02/19 01:50:59;;;;;;;14.48;2.58;;;;;;;11.40;51.34;99086.88;5092051;28;20035;-48
2022/02/19 01:53:25;;;;;;;11.20;1.75;;;;;;;11.43;51.51;99080.41;5093328;28;20047;-47
2022/02/19 01:55:52;;;;;;;6.90;1.70;;;;;;;11.51;51.43;99078.47;5091982;28;20047;-47
2022/02/19 01:58:19;;;;;;;8.75;1.73;;;;;;;11.51;51.50;99075.00;5093210;28;20028;-48
2022/02/19 02:00:45;;;;;;;7.15;1.75;;;;;;;11.41;51.23;99072.75;5093120;28;20095;-48
2022/02/19 02:03:12;;;;;;;6.10;1.42;;;;;;;11.36;51.24;99083.03;5091859;28;20462;-47
2022/02/19 02:05:38;;;;;;;6.82;1.38;;;;;;;11.27;51.55;99082.41;5093064;28;20114;-48
2022/02/19 02:08:07;;;;;;;8.52;1.83;;;;;;;11.23;52.14;99078.53;5093070;28;20107;-48
2022/02/19 02:10:37;;;;;;;5.30;1.48;;;;;;;11.28;51.92;99089.25;5092962;28;20070;-47
2022/02/19 02:13:04;;;;;;;8.40;2.03;;;;;;;11.30;51.74;99086.44;5092951;28;20020;-48
2022/02/19 02:15:33;;;;;;;11.20;2.65;;;;;;;11.30;51.85;99087.25;5092880;28;20035;-48
2022/02/19 02:17:59;;;;;;;8.32;1.85;;;;;;;11.33;51.92;99100.00;5091591;28;20039;-47
2022/02/19 02:20:26;;;;;;;9.05;2.85;;;;;;;11.42;51.94;99097.22;5092701;28;20020;-49
2022/02/19 02:22:52;;;;;;;10.77;2.13;;;;;;;11.50;51.71;99100.47;5092755;28;20107;-47
2022/02/19 02:25:24;;;;;;;7.68;1.77;;;;;;;11.59;51.37;99098.50;5092769;28;20458;-48
2022/02/19 02:27:49;;;;;;;6.50;2.13;;;;;;;11.65;51.32;99100.34;5090807;28;20028;-49
2022/02/19 02:30:16;;;;;;;8.90;1.98;;;;;;;11.76;51.19;99109.47;5092677;28;20504;-48
2022/02/19 02:32:42;;;;;;;10.20;2.00;;;;;;;11.80;51.26;99098.34;5092930;28;20028;-47
2022/02/19 02:35:07;;;;;;;11.40;1.90;;;;;;;11.83;51.31;99102.44;5092495;28;20030;-49
2022/02/19 02:37:33;;;;;;;6.70;1.30;;;;;;;11.82;50.93;99092.91;5092297;28;20020;-48
2022/02/19 02:39:59;;;;;;;6.95;1.60;;;;;;;11.73;50.98;99100.16;5092469;28;20505;-49
2022/02/19 02:42:25;;;;;;;10.80;3.40;;;;;;;11.76;50.88;99101.59;5091081;28;20032;-49
2022/02/19 02:44:52;;;;;;;10.52;1.75;;;;;;;11.80;50.95;99105.44;5091103;28;20021;-49
2022/02/19 02:47:18;;;;;;;9.20;2.55;;;;;;;11.78;51.43;99108.25;5092229;28;20089;-48
2022/02/19 02:49:44;;;;;;;10.35;2.05;;;;;;;11.64;51.54;99108.44;5092187;28;20505;-48
2022/02/19 02:52:09;;;;;;;11.55;2.47;;;;;;;11.51;51.63;99103.91;5090975;28;20028;-47
2022/02/19 02:54:36;;;;;;;9.02;2.00;;;;;;;11.48;52.11;99104.31;5092521;28;20382;-49
2022/02/19 02:57:03;;;;;;;9.02;1.92;;;;;;;11.36;52.14;99104.84;5092242;28;20042;-47
2022/02/19 02:59:28;;;;;;;7.68;1.65;;;;;;;11.26;52.41;99116.75;5090744;28;20031;-47
2022/02/19 03:01:54;;;;;;;5.32;1.52;;;;;;;11.18;52.88;99112.44;5090776;28;20032;-47
2022/02/19 03:04:20;;;;;;;11.73;1.50;;;;;;;11.26;53.27;99117.53;5090731;28;20058;-48
2022/02/19 03:06:45;;;;;;;8.00;1.75;;;;;;;11.45;52.80;99115.19;5092107;28;20023;-47
2022/02/19 03:09:11;;;;;;;8.00;1.73;;;;;;;11.58;52.63;99110.81;5090788;28;20021;-48
2022/02/19 03:11:37;;;;;;;9.20;2.20;;;;;;;11.61;51.72;99107.00;5090671;28;20028;-48
2022/02/19 03:14:05;;;;;;;6.13;1.50;;;;;;;11.58;51.67;99112.66;5092044;28;20016;-49
2022/02/19 03:16:32;;;;;;;5.93;1.30;;;;;;;11.64;51.63;99113.69;5090763;28;20028;-49
2022/02/19 03:18:58;;;;;;;10.68;1.92;;;;;;;11.69;50.58;99117.34;5091966;28;20065;-47
2022/02/19 03:21:24;;;;;;;10.63;2.00;;;;;;;11.71;51.03;99107.44;5091774;28;20028;-48
2022/02/19 03:23:52;;;;;;;14.77;2.78;;;;;;;11.71;51.60;99109.25;5091935;28;20058;-48
2022/02/19 03:26:18;;;;;;;15.55;2.85;;;;;;;11.73;51.48;99113.31;5091839;28;20024;-48
2022/02/19 03:28:43;;;;;;;7.28;2.03;;;;;;;11.76;50.98;99109.47;5091865;28;20103;-47
2022/02/19 03:31:09;;;;;;;9.70;1.55;;;;;;;11.80;50.87;99115.97;5091772;28;20059;-47
2022/02/19 03:33:35;;;;;;;8.52;1.90;;;;;;;11.84;50.93;99105.88;5091871;28;20012;-48
2022/02/19 03:36:01;;;;;;;12.32;2.35;;;;;;;11.86;51.20;99109.09;5090411;28;20113;-47
2022/02/19 03:38:26;;;;;;;11.20;2.20;;;;;;;11.82;50.73;99108.69;5090917;28;20032;-48
2022/02/19 03:40:52;;;;;;;6.57;2.30;;;;;;;11.82;50.97;99103.44;5095859;28;20016;-49
2022/02/19 03:43:19;;;;;;;7.82;1.92;;;;;;;11.83;50.67;99097.19;5094551;28;20139;-47
2022/02/19 03:45:45;;;;;;;9.65;2.20;;;;;;;11.84;50.17;99117.19;5094511;28;20460;-48
2022/02/19 03:48:11;;;;;;;12.90;2.10;;;;;;;11.80;49.98;99114.13;5094436;28;20124;-49
2022/02/19 03:50:37;;;;;;;7.88;2.25;;;;;;;11.72;49.96;99119.56;5094399;28;20028;-49
2022/02/19 03:53:04;;;;;;;7.82;1.98;;;;;;;11.63;49.85;99120.75;5095677;28;20509;-48
2022/02/19 03:55:30;;;;;;;10.18;2.30;;;;;;;11.53;49.96;99126.38;5094332;28;20035;-48
2022/02/19 03:57:56;;;;;;;11.25;2.38;;;;;;;11.35;50.13;99136.59;5094274;28;20028;-47
2022/02/19 04:00:22;;;;;;;9.70;1.58;;;;;;;11.07;50.22;99142.69;5095464;28;20073;-47
2022/02/19 04:02:48;;;;;;;9.10;1.88;;;;;;;10.88;50.21;99144.16;5095543;28;20032;-46
2022/02/19 04:05:15;;;;;;;7.00;1.80;;;;;;;10.80;50.37;99141.69;5094138;28;20020;-48
2022/02/19 04:07:41;;;;;;;7.75;2.10;;;;;;;10.74;50.47;99142.44;5095430;28;20029;-47
2022/02/19 04:10:09;;;;;;;10.00;2.50;;;;;;;10.71;50.84;99140.22;5095349;28;20024;-48
2022/02/19 04:12:35;;;;;;;8.23;1.90;;;;;;;10.64;50.90;99142.75;5095340;28;20108;-49
2022/02/19 04:15:01;;;;;;;10.73;1.80;;;;;;;10.51;51.16;99150.53;5093866;28;20054;-47
2022/02/19 04:17:27;;;;;;;13.57;2.42;;;;;;;10.39;51.69;99144.97;5095519;28;20389;-46
2022/02/19 04:19:53;;;;;;;8.65;2.20;;;;;;;10.37;52.11;99146.97;5095155;28;20025;-48
2022/02/19 04:22:23;;;;;;;10.85;1.90;;;;;;;10.28;52.82;99148.06;5095114;28;20423;-48
2022/02/19 04:24:50;;;;;;;7.97;2.70;;;;;;;10.15;52.67;99146.13;5093809;28;20031;-47
2022/02/19 04:27:17;;;;;;;7.07;1.90;;;;;;;9.98;53.48;99141.13;5093684;28;20047;-46
2022/02/19 04:29:43;;;;;;;7.30;2.03;;;;;;;9.85;54.19;99153.25;5093695;28;20024;-48
2022/02/19 04:32:09;;;;;;;6.25;1.83;;;;;;;9.66;54.95;99155.47;5094949;28;20031;-48
2022/02/19 04:34:36;;;;;;;9.10;2.25;;;;;;;9.49;54.99;99161.88;5093607;28;20020;-48
2022/02/19 04:37:02;;;;;;;11.95;2.53;;;;;;;9.33;55.53;99161.06;5094833;28;20023;-48
2022/02/19 04:39:28;;;;;;;11.23;2.65;;;;;;;9.16;55.77;99152.56;5094555;28;20043;-48
2022/02/19 04:41:53;;;;;;;8.70;1.95;;;;;;;9.03;55.91;99164.66;5094799;28;20044;-46
2022/02/19 04:44:19;;;;;;;11.20;2.67;;;;;;;8.99;56.44;99164.19;5093496;28;20119;-47
2022/02/19 04:46:45;;;;;;;7.50;2.88;;;;;;;9.03;56.89;99157.59;5094689;28;20494;-47
2022/02/19 04:49:11;;;;;;;8.23;2.42;;;;;;;9.12;56.60;99147.88;5094662;28;20451;-48
2022/02/19 04:51:37;;;;;;;9.38;2.00;;;;;;;9.22;56.31;99158.09;5093929;28;20024;-48
2022/02/19 04:54:04;;;;;;;11.85;2.22;;;;;;;9.24;56.83;99154.28;5094531;28;20024;-47
2022/02/19 04:56:31;;;;;;;13.88;2.00;;;;;;;9.23;56.67;99155.28;5094515;28;20020;-47
2022/02/19 04:58:57;;;;;;;11.68;2.35;;;;;;;9.32;56.57;99153.41;5094395;28;20485;-48
2022/02/19 05:01:22;;;;;;;10.50;2.55;;;;;;;9.44;56.35;99151.94;5092975;28;20031;-47
2022/02/19 05:03:48;;;;;;;8.57;1.90;;;;;;;9.56;56.36;99145.25;5093061;28;20029;-46
2022/02/19 05:06:14;;;;;;;10.93;2.10;;;;;;;9.59;56.57;99159.78;5094250;28;20019;-48
2022/02/19 05:08:41;;;;;;;9.85;1.95;;;;;;;9.46;56.53;99155.19;5092958;28;20039;-47
2022/02/19 05:11:07;;;;;;;7.70;2.20;;;;;;;9.39;56.96;99157.72;5092912;28;20513;-47
2022/02/19 05:13:33;;;;;;;9.40;2.10;;;;;;;9.39;56.86;99159.53;5092929;28;20028;-48
2022/02/19 05:15:59;;;;;;;3.75;1.40;;;;;;;9.45;57.06;99143.09;5094156;28;20030;-47
2022/02/19 05:18:24;;;;;;;7.15;1.77;;;;;;;9.51;57.13;99146.78;5094142;28;20035;-47
2022/02/19 05:20:50;;;;;;;8.68;2.10;;;;;;;9.50;56.54;99148.59;5093939;28;20509;-48
2022/02/19 05:23:16;;;;;;;7.85;1.80;;;;;;;9.39;56.36;99152.47;5093997;28;20027;-47
2022/02/19 05:25:43;;;;;;;9.38;2.05;;;;;;;9.26;56.34;99157.53;5092623;28;20048;-47
2022/02/19 05:28:09;;;;;;;10.95;1.75;;;;;;;9.08;56.56;99160.50;5092716;28;20400;-48
2022/02/19 05:30:36;;;;;;;12.32;2.05;;;;;;;8.93;57.21;99157.03;5092543;28;20059;-47
2022/02/19 05:33:03;;;;;;;12.52;2.08;;;;;;;8.84;57.10;99152.88;5092540;28;20024;-48
2022/02/19 05:35:28;;;;;;;9.55;1.70;;;;;;;8.84;57.73;99151.09;5092436;28;20442;-47
2022/02/19 05:37:54;;;;;;;9.70;1.80;;;;;;;8.85;57.71;99151.88;5093446;28;20032;-46
2022/02/19 05:40:20;;;;;;;12.82;2.20;;;;;;;8.87;57.37;99149.91;5092312;28;20315;-47
2022/02/19 05:42:46;;;;;;;10.57;1.75;;;;;;;8.85;57.64;99159.75;5092320;28;20024;-46
2022/02/19 05:45:12;;;;;;;10.38;2.88;;;;;;;8.76;57.41;99159.81;5092169;28;20027;-46
2022/02/19 05:47:37;;;;;;;10.82;3.08;;;;;;;8.58;57.56;99148.84;5093574;28;20016;-47
2022/02/19 05:50:04;;;;;;;12.50;2.20;;;;;;;8.43;57.86;99150.59;5093369;28;20498;-47
2022/02/19 05:52:29;;;;;;;9.77;2.55;;;;;;;8.20;58.50;99156.59;5093355;28;20024;-46
2022/02/19 05:54:55;;;;;;;8.75;2.38;;;;;;;7.98;59.00;99156.38;5093332;28;20020;-47
2022/02/19 05:57:22;;;;;;;9.75;2.25;;;;;;;7.91;59.80;99162.50;5093253;28;20024;-47
2022/02/19 05:59:49;;;;;;;8.32;2.42;;;;;;;7.91;59.43;99155.47;5093179;28;20084;-47
2022/02/19 06:02:16;;;;;;;13.90;2.47;;;;;;;7.83;59.15;99152.06;5090877;28;20108;-48
2022/02/19 06:04:42;;;;;;;14.55;2.47;;;;;;;7.74;59.79;99154.72;5093225;28;20582;-47
2022/02/19 06:07:07;;;;;;;11.50;2.20;;;;;;;7.78;60.15;99155.19;5091800;28;20099;-47
2022/02/19 06:09:33;;;;;;;11.60;2.40;;;;;;;7.78;60.03;99156.00;5093318;28;20406;-48
2022/02/19 06:11:59;;;;;;;8.00;2.00;;;;;;;7.78;60.51;99160.41;5093012;28;20020;-48
2022/02/19 06:14:25;;;;;;;15.90;2.10;;;;;;;7.75;60.99;99163.38;5092952;28;20024;-47
2022/02/19 06:16:51;;;;;;;13.32;2.45;;;;;;;7.74;60.55;99167.78;5091577;28;20035;-47
2022/02/19 06:19:18;;;;;;;10.70;2.33;;;;;;;7.74;60.43;99164.34;5091594;28;20080;-46
2022/02/19 06:21:43;;;;;;;14.52;3.13;;;;;;;7.66;60.93;99169.63;5092752;28;20478;-47
2022/02/19 06:24:09;;;;;;;10.98;2.50;;;;;;;7.64;61.54;99161.13;5092807;28;20032;-48
2022/02/19 06:26:35;;;;;;;9.23;2.22;;;;;;;7.59;61.37;99159.84;5092769;28;20094;-47
2022/02/19 06:29:01;;;;;;;12.52;2.47;;;;;;;7.48;61.36;99169.84;5092686;28;20034;-47
2022/02/19 06:31:27;;;;;;;14.30;2.42;;;;;;;7.40;61.98;99176.72;5092636;28;20028;-47
2022/02/19 06:33:52;;;;;;;18.17;2.88;;;;;;;7.34;61.96;99174.75;5091320;28;20576;-46
2022/02/19 06:36:19;;;;;;;11.10;2.28;;;;;;;7.29;62.43;99187.53;5092576;28;20028;-48
2022/02/19 06:38:46;;;;;;;10.35;2.00;;;;;;;7.29;62.55;99191.94;5090905;28;20088;-48
2022/02/19 06:41:13;;;;;;;10.43;3.10;;;;;;;7.29;62.63;99197.97;5092438;28;20099;-48
2022/02/19 06:43:38;;;;;;;11.45;2.30;;;;;;;7.25;62.38;99201.88;5092416;28;20114;-47
2022/02/19 06:46:04;;;;;;;9.68;2.55;;;;;;;7.14;62.73;99200.44;5091053;28;20108;-46
2022/02/19 06:48:30;;;;;;;7.45;2.60;;;;;;;7.05;63.11;99208.44;5092395;28;20020;-48
2022/02/19 06:50:58;;;;;;;11.23;2.80;;;;;;;7.09;63.01;99214.97;5092267;28;20028;-48
2022/02/19 06:53:27;;;;;;;14.88;2.70;;;;;;;7.15;63.76;99204.66;5092320;28;20078;-48
2022/02/19 06:55:53;;;;;;;16.85;3.80;;;;;;;7.30;63.35;99210.03;5092263;28;20110;-47
2022/02/19 06:58:19;;;;;;;9.07;2.10;;;;;;;7.38;63.17;99207.41;5090901;28;20468;-46
2022/02/19 07:00:46;;;;;;;9.00;2.20;;;;;;;7.50;62.84;99205.25;5092104;28;20494;-48
2022/02/19 07:03:12;;;;;;;10.93;2.83;;;;;;;7.66;63.12;99214.84;5092114;28;20026;-46
2022/02/19 07:05:37;;;;;;;16.20;2.92;;;;;;;7.95;62.06;99216.84;5092093;28;20472;-46
2022/02/19 07:08:03;;;;;;;11.55;1.85;;;;;;;8.26;61.52;99210.00;5092409;28;20020;-46
2022/02/19 07:10:29;;;;;;;12.55;2.45;;;;;;;8.53;61.02;99214.78;5091987;28;20413;-48
2022/02/19 07:12:55;;;;;;;10.68;2.63;;;;;;;8.77;59.89;99215.56;5091874;28;20035;-47
2022/02/19 07:15:21;;;;;;;15.27;2.67;;;;;;;8.96;59.30;99222.16;5090624;28;20024;-47
2022/02/19 07:17:49;;;;;;;12.18;3.40;;;;;;;8.95;58.55;99225.75;5091965;28;20016;-47
2022/02/19 07:20:15;;;;;;;15.93;3.45;;;;;;;8.95;58.80;99226.56;5090549;28;20059;-47
2022/02/19 07:22:41;;;;;;;11.40;2.90;;;;;;;9.23;58.33;99222.56;5091882;28;20020;-47
2022/02/19 07:25:07;;;;;;;9.80;2.60;;;;;;;9.64;57.10;99224.75;5091900;28;20497;-48
2022/02/19 07:27:40;;;;;;;8.15;2.55;;;;;;;9.87;56.41;99238.59;5090620;28;20016;-48
2022/02/19 07:30:08;;;;;;;9.63;3.35;;;;;;;9.94;55.88;99239.50;5091944;28;20036;-47
2022/02/19 07:32:36;;;;;;;11.63;3.72;;;;;;;9.90;55.42;99246.09;5091842;28;20040;-48
2022/02/19 07:35:03;;;;;;;10.75;2.47;;;;;;;9.80;55.54;99251.63;5090478;28;20024;-48
2022/02/19 07:37:29;;;;;;;8.55;2.33;;;;;;;9.71;55.66;99252.69;5090235;28;20050;-47
2022/02/19 07:39:55;;;;;;;15.60;3.63;;;;;;;9.75;55.84;99251.31;5090432;28;20502;-47
2022/02/19 07:42:21;;;;;;;10.10;2.83;;;;;;;9.90;55.75;99259.22;5091714;28;20077;-47
2022/02/19 07:44:46;;;;;;;10.18;2.95;;;;;;;10.29;55.09;99265.13;5090317;28;20032;-48
2022/02/19 07:47:12;;;;;;;29.40;6.80;;;;;;;11.17;54.03;99263.22;5091683;28;20440;-48
2022/02/19 08:00:34;;;;;;;12.57;2.85;;;;;;;14.13;46.26;99254.78;5091656;28;20035;-49
2022/02/19 08:02:59;;;;;;;11.15;2.85;;;;;;;14.48;45.48;99260.50;5090220;28;20016;-48
2022/02/19 08:05:25;;;;;;;12.13;2.97;;;;;;;14.96;44.57;99259.22;5091556;28;20063;-48
2022/02/19 08:07:51;;;;;;;15.52;3.28;;;;;;;15.32;43.34;99268.28;5091512;28;20052;-49
2022/02/19 08:10:16;;;;;;;11.80;2.80;;;;;;;15.76;42.41;99266.47;5090153;28;20024;-48
2022/02/19 08:12:42;;;;;;;9.10;3.03;;;;;;;16.25;41.28;99275.28;5091467;28;20391;-48
2022/02/19 08:15:08;;;;;;;9.70;2.90;;;;;;;16.61;40.17;99267.50;5091974;28;20024;-49
2022/02/19 08:17:34;;;;;;;11.40;3.00;;;;;;;16.60;39.85;99271.16;5090105;28;20032;-48
2022/02/19 08:19:59;;;;;;;14.90;4.00;;;;;;;16.72;40.09;99269.34;5091353;28;20021;-49
2022/02/19 08:22:25;;;;;;;16.95;3.33;;;;;;;17.12;38.69;99274.94;5091365;28;20024;-47
2022/02/19 08:24:51;;;;;;;12.13;2.92;;;;;;;17.04;38.55;99272.59;5090186;28;20032;-49
2022/02/19 08:27:16;;;;;;;16.95;3.38;;;;;;;16.40;38.84;99272.25;5093476;28;20081;-48
2022/02/19 08:29:42;;;;;;;14.90;3.50;;;;;;;15.57;40.21;99287.59;5095031;28;20024;-48
2022/02/19 08:32:09;;;;;;;12.20;3.42;;;;;;;14.89;41.65;99298.06;5094941;28;20062;-49
2022/02/19 08:34:34;;;;;;;13.13;3.22;;;;;;;14.30;42.51;99299.97;5094904;28;20073;-47
2022/02/19 08:37:00;;;;;;;12.38;2.70;;;;;;;13.88;42.73;99299.50;5093541;28;20028;-49
2022/02/19 08:39:26;;;;;;;16.83;3.20;;;;;;;13.65;43.65;99292.03;5094678;28;20044;-47
2022/02/19 08:41:52;;;;;;;11.25;3.20;;;;;;;13.63;43.64;99294.09;5093351;28;20024;-49
2022/02/19 08:44:18;;;;;;;18.30;3.53;;;;;;;13.49;43.49;99298.56;5093453;28;20486;-48
2022/02/19 08:46:44;;;;;;;12.48;2.60;;;;;;;13.17;44.81;99300.94;5093628;28;20078;-49
2022/02/19 08:49:10;;;;;;;15.70;3.20;;;;;;;12.95;45.14;99308.22;5093342;28;20486;-47
2022/02/19 08:51:36;;;;;;;15.68;3.67;;;;;;;12.87;44.49;99309.22;5094519;28;20035;-49
2022/02/19 08:54:01;;;;;;;14.73;2.55;;;;;;;12.64;45.16;99299.03;5094755;28;20039;-47
2022/02/19 08:56:27;;;;;;;16.00;2.70;;;;;;;12.58;45.01;99308.53;5093141;28;20581;-48
2022/02/19 08:58:53;;;;;;;14.57;2.90;;;;;;;12.55;45.32;99308.91;5094453;28;20024;-49
2022/02/19 09:01:18;;;;;;;12.00;2.90;;;;;;;12.65;45.43;99319.09;5093017;28;20031;-47
2022/02/19 09:03:44;;;;;;;11.88;3.33;;;;;;;12.89;45.05;99315.09;5094306;28;20105;-47
2022/02/19 09:06:10;;;;;;;12.95;2.92;;;;;;;13.34;44.75;99318.03;5094309;28;20023;-48
2022/02/19 09:08:35;;;;;;;12.60;3.70;;;;;;;13.77;43.70;99312.31;5093004;28;20485;-48
2022/02/19 09:11:01;;;;;;;14.38;2.97;;;;;;;13.95;43.68;99316.94;5094228;28;20411;-48
2022/02/19 09:13:27;;;;;;;15.13;3.22;;;;;;;14.48;42.65;99318.59;5094216;28;20134;-49
2022/02/19 09:15:53;;;;;;;15.10;3.22;;;;;;;14.83;41.16;99320.91;5094173;28;20020;-47
2022/02/19 09:18:18;;;;;;;16.95;3.92;;;;;;;15.49;39.45;99319.63;5094120;28;20040;-49
2022/02/19 09:20:44;;;;;;;13.63;3.00;;;;;;;15.71;38.78;99322.66;5092626;28;20028;-49
2022/02/19 09:23:10;;;;;;;11.32;3.00;;;;;;;15.36;38.63;99322.38;5092735;28;20027;-48
2022/02/19 09:25:36;;;;;;;11.68;2.63;;;;;;;14.78;39.69;99324.16;5093861;28;20021;-49
2022/02/19 09:28:02;;;;;;;17.30;3.13;;;;;;;14.27;40.52;99338.19;5092614;28;20050;-48
2022/02/19 09:30:29;;;;;;;14.95;2.95;;;;;;;13.87;41.20;99343.56;5093861;28;20016;-49
2022/02/19 09:32:59;;;;;;;15.98;3.20;;;;;;;13.37;42.22;99337.91;5093807;28;20020;-47
2022/02/19 09:35:26;;;;;;;11.80;3.13;;;;;;;12.91;43.29;99338.59;5094049;28;20027;-47
2022/02/19 09:37:52;;;;;;;15.57;3.63;;;;;;;12.77;44.09;99350.94;5093521;28;20039;-48
2022/02/19 09:40:18;;;;;;;12.45;3.45;;;;;;;13.47;43.19;99343.56;5092189;28;20505;-48
2022/02/19 09:42:44;;;;;;;12.15;3.00;;;;;;;15.07;40.83;99344.94;5093649;28;20032;-48
2022/02/19 09:45:10;;;;;;;10.30;2.47;;;;;;;15.24;39.32;99339.97;5093525;28;20013;-49
2022/02/19 09:47:38;;;;;;;10.57;2.17;;;;;;;16.26;38.08;99334.34;5093533;28;20036;-48
2022/02/19 09:50:05;;;;;;;11.90;2.20;;;;;;;17.29;35.28;99333.41;5093530;28;20505;-48
2022/02/19 09:52:31;;;;;;;7.53;2.38;;;;;;;18.01;32.77;99326.28;5093463;28;20025;-48
2022/02/19 09:54:59;;;;;;;9.45;2.13;;;;;;;18.35;31.51;99319.28;5092111;28;20024;-48
2022/02/19 09:57:24;;;;;;;13.77;2.58;;;;;;;18.68;30.96;99325.78;5092004;28;20111;-48
2022/02/19 09:59:50;;;;;;;11.77;2.75;;;;;;;18.49;30.78;99328.63;5093299;28;20091;-48
2022/02/19 10:02:16;;;;;;;10.93;2.40;;;;;;;18.51;31.10;99323.06;5093272;28;20081;-49
2022/02/19 10:04:45;;;;;;;12.20;2.47;;;;;;;18.34;30.95;99325.66;5093212;28;20017;-49
2022/02/19 10:07:16;;;;;;;10.45;2.38;;;;;;;18.48;30.33;99329.66;5093470;28;20389;-48
2022/02/19 10:09:46;;;;;;;10.32;2.70;;;;;;;19.22;29.92;99328.91;5093139;28;20039;-48
2022/02/19 10:12:15;;;;;;;10.65;2.13;;;;;;;20.03;28.91;99328.53;5093105;28;20024;-48
2022/02/19 10:14:43;;;;;;;8.82;2.38;;;;;;;20.73;28.12;99324.31;5093036;28;20012;-50
2022/02/19 10:17:22;;;;;;;10.45;2.83;;;;;;;20.64;28.31;99327.66;5093230;28;20432;-49
2022/02/19 10:20:01;;;;;;;7.45;1.90;;;;;;;19.67;27.89;99325.31;5092858;28;20105;-48
2022/02/19 10:22:32;;;;;;;7.63;1.70;;;;;;;18.40;28.87;99316.75;5092911;28;20036;-49
2022/02/19 10:24:59;;;;;;;7.85;2.00;;;;;;;18.35;28.59;99327.28;5092889;28;20474;-49
2022/02/19 10:27:44;;;;;;;7.05;1.65;;;;;;;17.67;28.50;99323.44;5092744;28;20024;-47
2022/02/19 10:30:11;;;;;;;7.15;1.98;;;;;;;17.00;29.70;99323.66;5091399;28;20031;-48
2022/02/19 10:32:50;;;;;;;8.55;1.98;;;;;;;17.97;29.17;99328.63;5091335;28;20032;-48
2022/02/19 10:35:17;;;;;;;11.07;2.83;;;;;;;18.75;27.56;99324.63;5091291;28;20088;-48
2022/02/19 10:37:48;;;;;;;9.55;2.30;;;;;;;18.83;27.17;99314.66;5091264;28;20028;-47
2022/02/19 10:40:46;;;;;;;13.32;2.40;;;;;;;18.58;27.60;99328.25;5086487;28;20117;-49
2022/02/19 10:43:20;;;;;;;9.15;2.05;;;;;;;18.67;27.15;99327.66;5092568;28;20040;-48
2022/02/19 10:46:03;;;;;;;8.02;1.80;;;;;;;18.75;27.19;99326.44;5092542;28;20032;-49
2022/02/19 10:48:34;;;;;;;11.07;1.77;;;;;;;18.94;26.22;99332.41;5091862;28;20024;-48
2022/02/19 10:51:18;;;;;;;8.05;2.10;;;;;;;19.53;26.53;99326.72;5091059;28;20042;-50
2022/02/19 10:54:08;;;;;;;7.13;2.13;;;;;;;20.12;25.68;99324.41;5091155;28;20394;-48
2022/02/19 10:56:35;;;;;;;10.18;2.20;;;;;;;20.36;25.34;99321.47;5092246;28;20028;-48
2022/02/19 10:59:05;;;;;;;9.25;1.92;;;;;;;20.63;24.51;99332.22;5092286;28;20042;-48
2022/02/19 11:01:46;;;;;;;8.70;1.50;;;;;;;20.46;24.36;99315.44;5092127;28;20020;-48
2022/02/19 11:04:14;;;;;;;8.70;1.83;;;;;;;20.09;23.71;99316.88;5092298;28;20024;-49
2022/02/19 11:06:40;;;;;;;10.35;2.00;;;;;;;19.60;24.40;99321.22;5090827;28;20374;-50
2022/02/19 11:09:08;;;;;;;14.93;2.83;;;;;;;20.04;24.15;99321.31;5092144;28;20020;-48
2022/02/19 11:11:39;;;;;;;7.63;1.67;;;;;;;20.72;23.22;99314.69;5090758;28;20035;-48
2022/02/19 11:14:06;;;;;;;8.52;2.42;;;;;;;21.05;22.85;99301.41;5090756;28;20459;-49
2022/02/19 11:16:33;;;;;;;8.18;2.78;;;;;;;21.29;22.29;99308.00;5090680;28;20032;-49
2022/02/19 11:19:02;;;;;;;5.30;1.63;;;;;;;21.64;22.12;99303.19;5090710;28;20028;-48
2022/02/19 11:21:29;;;;;;;7.57;2.05;;;;;;;21.79;21.70;99305.16;5091870;28;20024;-48
2022/02/19 11:23:59;;;;;;;6.22;1.90;;;;;;;21.98;21.80;99306.31;5092025;28;20410;-49
2022/02/19 11:26:25;;;;;;;8.88;1.92;;;;;;;21.99;20.25;99305.25;5090773;28;20036;-49
2022/02/19 11:28:56;;;;;;;11.55;2.00;;;;;;;21.87;20.79;99302.81;5091872;28;20389;-50
2022/02/19 11:31:27;;;;;;;4.10;0.93;;;;;;;21.92;19.75;99289.44;5091821;28;20032;-50
2022/02/19 11:33:56;;;;;;;9.52;1.83;;;;;;;21.34;20.28;99294.69;5090603;28;20484;-48
2022/02/19 11:36:26;;;;;;;9.25;1.70;;;;;;;20.80;21.04;99304.63;5091798;28;20043;-48
2022/02/19 11:38:55;;;;;;;6.03;1.70;;;;;;;20.50;21.45;99309.38;5090268;28;20074;-49
2022/02/19 11:41:35;;;;;;;7.07;1.80;;;;;;;20.73;21.91;99305.63;5090416;28;20024;-48